createdAt,value
2019-02-18T00:00:45.624Z,101507.87
2019-02-18T00:01:55.944Z,101510.84
2019-02-18T00:03:03.826Z,101509.16
2019-02-18T00:04:10.898Z,101515.95
2019-02-18T00:05:17.600Z,101520.64
2019-02-18T00:06:24.594Z,101511.28
2019-02-18T00:07:31.672Z,101514.66
2019-02-18T00:08:38.434Z,101517.23
2019-02-18T00:09:45.722Z,101509.59
2019-02-18T00:10:52.860Z,101512.56
2019-02-18T00:11:59.603Z,101514.67
2019-02-18T00:13:06.348Z,101511.28
2019-02-18T00:14:13.179Z,101515.09
2019-02-18T00:15:19.877Z,101517.20
2019-02-18T00:16:26.583Z,101515.95
2019-02-18T00:17:33.811Z,101514.26
2019-02-18T00:18:40.516Z,101512.13
2019-02-18T00:19:47.229Z,101515.94
2019-02-18T00:20:53.973Z,101508.73
2019-02-18T00:22:01.037Z,101513.81
2019-02-18T00:23:07.747Z,101506.60
2019-02-18T00:24:14.514Z,101510.41
2019-02-18T00:25:21.296Z,101512.12
2019-02-18T00:26:28.391Z,101510.85
2019-02-18T00:27:35.324Z,101515.06
2019-02-18T00:28:42.044Z,101512.12
2019-02-18T00:29:48.794Z,101508.30
2019-02-18T00:30:55.813Z,101508.70
2019-02-18T00:32:02.926Z,101518.05
2019-02-18T00:33:10.192Z,101512.52
2019-02-18T00:34:17.247Z,101516.77
2019-02-18T00:35:24.366Z,101519.73
2019-02-18T00:36:31.065Z,101515.52
2019-02-18T00:37:38.395Z,101523.98
2019-02-18T00:38:45.555Z,101515.07
2019-02-18T00:39:52.540Z,101517.63
2019-02-18T00:40:59.671Z,101524.00
2019-02-18T00:42:06.436Z,101519.33
2019-02-18T00:43:13.099Z,101516.77
2019-02-18T00:44:20.176Z,101518.06
2019-02-18T00:45:27.212Z,101520.57
2019-02-18T00:46:34.902Z,101520.59
2019-02-18T00:47:41.568Z,101520.59
2019-02-18T00:48:48.329Z,101524.39
2019-02-18T00:49:55.048Z,101515.92
2019-02-18T00:51:01.729Z,101515.91
2019-02-18T00:52:08.766Z,101520.58
2019-02-18T00:53:15.835Z,101522.69
2019-02-18T00:54:22.497Z,101522.68
2019-02-18T00:55:29.262Z,101521.44
2019-02-18T00:56:36.028Z,101519.71
2019-02-18T00:57:43.119Z,101517.17
2019-02-18T00:58:49.884Z,101519.29
2019-02-18T00:59:56.998Z,101518.45
2019-02-18T01:01:03.944Z,101514.63
2019-02-18T01:02:11.142Z,101516.30
2019-02-18T01:03:17.797Z,101519.67
2019-02-18T01:04:24.530Z,101517.53
2019-02-18T01:05:31.969Z,101517.15
2019-02-18T01:06:38.807Z,101517.55
2019-02-18T01:07:45.923Z,101517.14
2019-02-18T01:08:53.027Z,101517.95
2019-02-18T01:10:00.322Z,101518.37
2019-02-18T01:11:07.502Z,101517.97
2019-02-18T01:12:14.548Z,101520.09
2019-02-18T01:13:21.297Z,101515.42
2019-02-18T01:14:27.963Z,101528.98
2019-02-18T01:15:35.220Z,101521.33
2019-02-18T01:16:42.006Z,101521.74
2019-02-18T01:17:49.390Z,101526.42
2019-02-18T01:18:56.422Z,101519.20
2019-02-18T01:20:03.228Z,101521.33
2019-02-18T01:21:09.913Z,101517.47
2019-02-18T01:22:16.623Z,101519.61
2019-02-18T01:23:23.829Z,101516.21
2019-02-18T01:24:30.521Z,101515.80
2019-02-18T01:25:37.287Z,101511.54
2019-02-18T01:26:44.182Z,101517.05
2019-02-18T01:27:51.303Z,101512.38
2019-02-18T01:28:58.358Z,101512.38
2019-02-18T01:30:05.934Z,101514.06
2019-02-18T01:31:12.923Z,101515.34
2019-02-18T01:32:19.651Z,101510.69
2019-02-18T01:33:26.398Z,101514.09
2019-02-18T01:34:34.241Z,101511.55
2019-02-18T01:35:41.674Z,101512.42
2019-02-18T01:36:48.900Z,101508.60
2019-02-18T01:37:55.740Z,101511.99
2019-02-18T01:39:02.476Z,101514.95
2019-02-18T01:40:12.632Z,101516.23
2019-02-18T01:41:19.414Z,101515.42
2019-02-18T01:42:26.394Z,101513.70
2019-02-18T01:43:33.639Z,101516.68
2019-02-18T01:44:40.646Z,101509.47
2019-02-18T01:45:47.373Z,101513.68
2019-02-18T01:46:55.127Z,101513.68
2019-02-18T01:48:01.928Z,101508.15
2019-02-18T01:49:09.188Z,101511.97
2019-02-18T01:50:16.542Z,101504.75
2019-02-18T01:51:23.614Z,101508.52
2019-02-18T01:52:30.392Z,101503.43
2019-02-18T01:53:37.817Z,101508.52
2019-02-18T01:54:44.887Z,101500.05
2019-02-18T01:55:51.891Z,101505.55
2019-02-18T01:56:59.012Z,101501.72
2019-02-18T01:58:06.227Z,101507.23
2019-02-18T01:59:12.898Z,101505.94
2019-02-18T02:00:19.626Z,101501.69
2019-02-18T02:01:26.471Z,101500.00
2019-02-18T02:02:33.159Z,101501.27
2019-02-18T02:03:39.896Z,101499.55
2019-02-18T02:04:46.904Z,101500.81
2019-02-18T02:05:54.260Z,101502.08
2019-02-18T02:07:01.421Z,101502.50
2019-02-18T02:08:08.429Z,101495.69
2019-02-18T02:09:16.575Z,101497.82
2019-02-18T02:10:23.350Z,101494.80
2019-02-18T02:11:30.031Z,101502.00
2019-02-18T02:12:36.935Z,101502.84
2019-02-18T02:13:43.693Z,101497.28
2019-02-18T02:14:50.346Z,101498.58
2019-02-18T02:15:57.701Z,101500.67
2019-02-18T02:17:04.635Z,101493.45
2019-02-18T02:18:11.779Z,101496.39
2019-02-18T02:19:18.684Z,101489.61
2019-02-18T02:20:25.427Z,101491.30
2019-02-18T02:21:32.609Z,101494.24
2019-02-18T02:22:40.058Z,101491.68
2019-02-18T02:23:46.812Z,101488.72
2019-02-18T02:24:53.653Z,101481.52
2019-02-18T02:26:00.457Z,101480.66
2019-02-18T02:27:07.186Z,101487.41
2019-02-18T02:28:13.906Z,101487.43
2019-02-18T02:29:20.887Z,101486.12
2019-02-18T02:30:27.579Z,101488.25
2019-02-18T02:31:34.302Z,101481.47
2019-02-18T02:32:41.326Z,101484.00
2019-02-18T02:33:48.684Z,101484.83
2019-02-18T02:34:55.445Z,101482.29
2019-02-18T02:36:02.159Z,101484.81
2019-02-18T02:37:08.941Z,101487.36
2019-02-18T02:38:15.666Z,101490.30
2019-02-18T02:39:22.308Z,101484.77
2019-02-18T02:40:29.356Z,101484.76
2019-02-18T02:41:36.084Z,101481.34
2019-02-18T02:42:43.496Z,101479.22
2019-02-18T02:43:50.890Z,101487.20
2019-02-18T02:44:57.970Z,101480.82
2019-02-18T02:46:05.020Z,101482.95
2019-02-18T02:47:12.130Z,101485.89
2019-02-18T02:48:19.440Z,101490.12
2019-02-18T02:49:26.156Z,101487.14
2019-02-18T02:50:32.964Z,101493.05
2019-02-18T02:51:39.717Z,101495.20
2019-02-18T02:52:46.451Z,101490.94
2019-02-18T02:53:53.423Z,101490.91
2019-02-18T02:55:00.288Z,101491.31
2019-02-18T02:56:07.149Z,101485.79
2019-02-18T02:57:13.847Z,101484.52
2019-02-18T02:58:20.581Z,101486.62
2019-02-18T02:59:27.676Z,101487.51
2019-02-18T03:00:34.677Z,101486.22
2019-02-18T03:01:41.499Z,101492.16
2019-02-18T03:02:49.626Z,101485.79
2019-02-18T03:03:57.024Z,101486.23
2019-02-18T03:05:04.003Z,101484.91
2019-02-18T03:06:11.035Z,101490.81
2019-02-18T03:07:18.058Z,101489.57
2019-02-18T03:08:25.026Z,101490.80
2019-02-18T03:09:31.723Z,101489.52
2019-02-18T03:10:38.476Z,101493.75
2019-02-18T03:11:45.520Z,101490.80
2019-02-18T03:12:52.237Z,101493.75
2019-02-18T03:13:59.406Z,101495.87
2019-02-18T03:15:07.172Z,101496.30
2019-02-18T03:16:14.712Z,101493.34
2019-02-18T03:17:21.403Z,101484.41
2019-02-18T03:18:28.140Z,101492.07
2019-02-18T03:19:34.829Z,101491.63
2019-02-18T03:20:41.504Z,101487.34
2019-02-18T03:21:48.538Z,101486.47
2019-02-18T03:22:55.622Z,101483.48
2019-02-18T03:24:02.720Z,101483.48
2019-02-18T03:25:24.115Z,101479.66
2019-02-18T03:26:30.870Z,101480.09
2019-02-18T03:27:37.620Z,101475.84
2019-02-18T03:29:41.891Z,101472.88
2019-02-18T03:31:03.373Z,101470.78
2019-02-18T03:32:11.241Z,101476.25
2019-02-18T03:33:23.269Z,101475.36
2019-02-18T03:34:36.671Z,101476.20
2019-02-18T03:35:43.365Z,101475.38
2019-02-18T03:36:50.051Z,101477.07
2019-02-18T03:37:56.782Z,101477.93
2019-02-18T03:39:04.751Z,101466.04
2019-02-18T03:40:11.802Z,101476.63
2019-02-18T03:41:18.559Z,101473.27
2019-02-18T03:42:25.543Z,101477.89
2019-02-18T03:43:32.808Z,101472.75
2019-02-18T03:44:39.516Z,101474.82
2019-02-18T03:45:46.595Z,101473.58
2019-02-18T03:46:53.303Z,101473.59
2019-02-18T03:47:59.966Z,101467.20
2019-02-18T03:49:06.716Z,101475.30
2019-02-18T03:50:13.446Z,101473.61
2019-02-18T03:51:20.115Z,101472.77
2019-02-18T03:52:26.793Z,101477.41
2019-02-18T03:53:33.890Z,101475.30
2019-02-18T03:54:40.683Z,101473.57
2019-02-18T03:55:47.743Z,101477.34
2019-02-18T03:56:54.665Z,101475.64
2019-02-18T03:58:01.361Z,101481.98
2019-02-18T03:59:08.054Z,101478.65
2019-02-18T04:00:15.195Z,101478.63
2019-02-18T04:01:22.299Z,101477.77
2019-02-18T04:02:29.144Z,101475.23
2019-02-18T04:03:35.898Z,101476.48
2019-02-18T04:04:42.900Z,101478.64
2019-02-18T04:05:49.981Z,101476.99
2019-02-18T04:06:56.706Z,101481.21
2019-02-18T04:08:04.190Z,101479.52
2019-02-18T04:09:10.934Z,101479.91
2019-02-18T04:10:17.767Z,101480.33
2019-02-18T04:11:24.424Z,101481.60
2019-02-18T04:12:33.412Z,101479.52
2019-02-18T04:13:40.124Z,101482.11
2019-02-18T04:14:46.792Z,101484.24
2019-02-18T04:15:53.487Z,101486.38
2019-02-18T04:17:01.006Z,101486.39
2019-02-18T04:18:07.737Z,101485.97
2019-02-18T04:19:14.448Z,101492.74
2019-02-18T04:20:21.574Z,101490.63
2019-02-18T04:21:28.213Z,101488.91
2019-02-18T04:22:35.258Z,101490.61
2019-02-18T04:23:42.294Z,101491.88
2019-02-18T04:24:48.962Z,101492.70
2019-02-18T04:25:56.039Z,101494.42
2019-02-18T04:27:02.758Z,101491.41
2019-02-18T04:28:09.468Z,101491.76
2019-02-18T04:29:16.983Z,101487.09
2019-02-18T04:30:24.121Z,101489.17
2019-02-18T04:31:30.787Z,101490.38
2019-02-18T04:32:37.847Z,101487.39
2019-02-18T04:33:45.040Z,101485.17
2019-02-18T04:34:52.106Z,101482.22
2019-02-18T04:35:58.862Z,101483.53
2019-02-18T04:37:05.876Z,101480.97
2019-02-18T04:38:12.640Z,101483.91
2019-02-18T04:39:19.378Z,101477.14
2019-02-18T04:40:26.531Z,101485.19
2019-02-18T04:41:33.609Z,101478.39
2019-02-18T04:42:40.698Z,101477.57
2019-02-18T04:43:47.386Z,101475.90
2019-02-18T04:44:54.100Z,101475.45
2019-02-18T04:46:00.810Z,101481.34
2019-02-18T04:47:07.492Z,101475.80
2019-02-18T04:48:14.591Z,101480.39
2019-02-18T04:49:21.274Z,101476.98
2019-02-18T04:50:28.285Z,101471.09
2019-02-18T04:51:35.375Z,101474.05
2019-02-18T04:52:42.079Z,101471.51
2019-02-18T04:53:48.778Z,101481.27
2019-02-18T04:54:55.468Z,101471.50
2019-02-18T04:56:02.212Z,101470.61
2019-02-18T04:57:08.952Z,101468.44
2019-02-18T04:58:15.688Z,101466.26
2019-02-18T04:59:22.467Z,101462.03
2019-02-18T05:00:29.120Z,101467.53
2019-02-18T05:01:36.648Z,101465.35
2019-02-18T05:02:43.483Z,101465.33
2019-02-18T05:03:50.500Z,101470.87
2019-02-18T05:04:57.415Z,101467.91
2019-02-18T05:06:04.125Z,101469.62
2019-02-18T05:07:10.981Z,101465.86
2019-02-18T05:08:17.667Z,101461.64
2019-02-18T05:09:24.369Z,101463.38
2019-02-18T05:10:31.674Z,101458.31
2019-02-18T05:11:38.413Z,101461.71
2019-02-18T05:12:45.454Z,101458.31
2019-02-18T05:13:52.168Z,101461.69
2019-02-18T05:14:59.167Z,101458.31
2019-02-18T05:16:06.179Z,101458.72
2019-02-18T05:17:13.259Z,101457.88
2019-02-18T05:18:20.014Z,101462.11
2019-02-18T05:19:26.825Z,101465.90
2019-02-18T05:20:33.590Z,101461.64
2019-02-18T05:21:40.428Z,101456.97
2019-02-18T05:22:47.111Z,101459.03
2019-02-18T05:23:54.149Z,101456.03
2019-02-18T05:25:02.516Z,101451.27
2019-02-18T05:26:09.286Z,101450.41
2019-02-18T05:27:16.000Z,101452.97
2019-02-18T05:28:22.765Z,101450.86
2019-02-18T05:29:29.787Z,101448.28
2019-02-18T05:30:36.990Z,101448.28
2019-02-18T05:31:44.380Z,101443.16
2019-02-18T05:32:51.134Z,101441.45
2019-02-18T05:33:57.824Z,101441.91
2019-02-18T05:35:04.605Z,101446.56
2019-02-18T05:36:11.669Z,101447.45
2019-02-18T05:37:18.654Z,101443.69
2019-02-18T05:38:25.555Z,101447.11
2019-02-18T05:39:32.695Z,101438.23
2019-02-18T05:40:39.699Z,101442.48
2019-02-18T05:41:46.410Z,101438.67
2019-02-18T05:42:53.121Z,101438.28
2019-02-18T05:44:00.179Z,101438.28
2019-02-18T05:45:07.895Z,101437.42
2019-02-18T05:46:14.590Z,101434.93
2019-02-18T05:47:21.599Z,101432.83
2019-02-18T05:48:28.994Z,101425.23
2019-02-18T05:49:35.761Z,101431.98
2019-02-18T05:50:42.793Z,101436.25
2019-02-18T05:51:49.805Z,101432.05
2019-02-18T05:52:57.921Z,101434.16
2019-02-18T05:54:04.628Z,101432.05
2019-02-18T05:55:11.777Z,101434.59
2019-02-18T05:56:18.786Z,101436.25
2019-02-18T05:57:25.532Z,101436.27
2019-02-18T05:58:32.547Z,101433.73
2019-02-18T05:59:39.268Z,101436.27
2019-02-18T06:00:46.320Z,101436.70
2019-02-18T06:01:53.322Z,101435.41
2019-02-18T06:03:00.393Z,101423.56
2019-02-18T06:04:07.108Z,101427.38
2019-02-18T06:05:13.829Z,101428.22
2019-02-18T06:06:20.532Z,101432.03
2019-02-18T06:07:27.248Z,101425.70
2019-02-18T06:08:33.971Z,101427.39
2019-02-18T06:09:40.698Z,101425.73
2019-02-18T06:10:47.413Z,101425.33
2019-02-18T06:11:54.127Z,101427.88
2019-02-18T06:13:01.259Z,101428.74
2019-02-18T06:14:07.923Z,101431.28
2019-02-18T06:15:14.645Z,101429.64
2019-02-18T06:16:22.314Z,101433.05
2019-02-18T06:17:29.679Z,101437.25
2019-02-18T06:18:36.708Z,101437.25
2019-02-18T06:19:43.714Z,101433.03
2019-02-18T06:20:50.795Z,101438.13
2019-02-18T06:21:57.494Z,101444.02
2019-02-18T06:23:04.253Z,101435.14
2019-02-18T06:24:11.077Z,101438.08
2019-02-18T06:25:17.786Z,101441.93
2019-02-18T06:26:24.888Z,101442.81
2019-02-18T06:27:31.961Z,101438.58
2019-02-18T06:28:39.111Z,101438.19
2019-02-18T06:29:46.180Z,101436.95
2019-02-18T06:30:54.882Z,101435.69
2019-02-18T06:32:02.107Z,101436.95
2019-02-18T06:33:09.324Z,101438.66
2019-02-18T06:34:16.036Z,101431.91
2019-02-18T06:35:23.085Z,101433.64
2019-02-18T06:36:29.814Z,101436.17
2019-02-18T06:37:36.461Z,101434.95
2019-02-18T06:38:43.839Z,101434.13
2019-02-18T06:39:50.506Z,101432.46
2019-02-18T06:40:57.226Z,101434.22
2019-02-18T06:42:03.956Z,101435.95
2019-02-18T06:43:11.019Z,101435.11
2019-02-18T06:44:20.834Z,101433.87
2019-02-18T06:45:41.953Z,101432.61
2019-02-18T06:46:55.691Z,101433.03
2019-02-18T06:48:05.197Z,101430.92
2019-02-18T06:49:17.429Z,101430.50
2019-02-18T06:50:24.190Z,101434.29
2019-02-18T06:51:31.278Z,101433.89
2019-02-18T06:52:38.308Z,101432.63
2019-02-18T06:53:45.461Z,101435.15
2019-02-18T06:54:52.164Z,101437.24
2019-02-18T06:55:59.586Z,101438.94
2019-02-18T06:57:18.886Z,101443.14
2019-02-18T06:58:36.256Z,101440.59
2019-02-18T06:59:49.987Z,101438.02
2019-02-18T07:01:04.056Z,101442.28
2019-02-18T07:02:24.485Z,101441.83
2019-02-18T07:04:08.519Z,101438.47
2019-02-18T07:05:43.865Z,101430.88
2019-02-18T07:07:02.939Z,101437.62
2019-02-18T07:08:27.225Z,101444.38
2019-02-18T07:09:52.885Z,101442.70
2019-02-18T07:11:04.602Z,101441.83
2019-02-18T07:12:21.525Z,101443.55
2019-02-18T07:13:28.249Z,101444.84
2019-02-18T07:14:36.758Z,101449.47
2019-02-18T07:15:43.849Z,101444.38
2019-02-18T07:16:50.864Z,101449.91
2019-02-18T07:17:57.545Z,101457.07
2019-02-18T07:19:04.254Z,101454.95
2019-02-18T07:20:11.341Z,101450.70
2019-02-18T07:21:18.032Z,101450.27
2019-02-18T07:22:24.729Z,101448.18
2019-02-18T07:23:32.917Z,101443.14
2019-02-18T07:24:39.617Z,101447.42
2019-02-18T07:25:46.764Z,101450.42
2019-02-18T07:26:54.869Z,101444.09
2019-02-18T07:28:01.528Z,101450.89
2019-02-18T07:29:08.317Z,101444.58
2019-02-18T07:30:17.216Z,101446.70
2019-02-18T07:31:24.970Z,101446.72
2019-02-18T07:32:31.829Z,101435.31
2019-02-18T07:33:39.779Z,101427.72
2019-02-18T07:34:46.468Z,101437.91
2019-02-18T07:35:53.164Z,101431.14
2019-02-18T07:37:00.233Z,101426.08
2019-02-18T07:38:07.037Z,101429.06
2019-02-18T07:39:13.772Z,101425.70
2019-02-18T07:40:20.462Z,101430.78
2019-02-18T07:41:27.450Z,101432.94
2019-02-18T07:42:34.304Z,101431.66
2019-02-18T07:43:41.411Z,101435.48
2019-02-18T07:44:48.087Z,101430.84
2019-02-18T07:45:55.145Z,101433.81
2019-02-18T07:47:01.867Z,101432.20
2019-02-18T07:48:08.577Z,101432.23
2019-02-18T07:49:15.313Z,101430.98
2019-02-18T07:50:22.444Z,101434.38
2019-02-18T07:51:29.488Z,101430.18
2019-02-18T07:52:36.197Z,101432.73
2019-02-18T07:53:43.229Z,101431.05
2019-02-18T07:54:49.968Z,101432.34
2019-02-18T07:55:57.041Z,101434.06
2019-02-18T07:57:03.771Z,101437.02
2019-02-18T07:58:10.480Z,101439.16
2019-02-18T07:59:18.263Z,101443.84
2019-02-18T08:00:24.986Z,101440.91
2019-02-18T08:01:32.112Z,101441.77
2019-02-18T08:02:38.827Z,101440.50
2019-02-18T08:03:45.549Z,101439.70
2019-02-18T08:04:52.612Z,101438.03
2019-02-18T08:06:00.007Z,101441.86
2019-02-18T08:07:06.938Z,101433.80
2019-02-18T08:08:13.672Z,101435.09
2019-02-18T08:09:20.390Z,101435.98
2019-02-18T08:10:27.101Z,101438.55
2019-02-18T08:11:33.826Z,101442.38
2019-02-18T08:12:40.545Z,101442.40
2019-02-18T08:13:48.003Z,101435.21
2019-02-18T08:14:54.681Z,101443.69
2019-02-18T08:16:02.100Z,101439.88
2019-02-18T08:17:08.800Z,101436.50
2019-02-18T08:18:15.583Z,101432.25
2019-02-18T08:19:22.582Z,101435.64
2019-02-18T08:20:30.048Z,101432.25
2019-02-18T08:21:36.737Z,101428.85
2019-02-18T08:22:43.725Z,101425.85
2019-02-18T08:23:59.739Z,101424.16
2019-02-18T08:24:58.817Z,101430.94
2019-02-18T08:26:06.289Z,101425.41
2019-02-18T08:27:12.971Z,101422.85
2019-02-18T08:28:20.414Z,101431.75
2019-02-18T08:29:27.107Z,101424.54
2019-02-18T08:30:33.815Z,101429.23
2019-02-18T08:31:40.911Z,101434.77
2019-02-18T08:32:48.797Z,101430.50
2019-02-18T08:33:55.561Z,101436.04
2019-02-18T08:35:02.288Z,101431.80
2019-02-18T08:36:09.259Z,101434.35
2019-02-18T08:37:15.956Z,101431.83
2019-02-18T08:38:22.638Z,101427.56
2019-02-18T08:39:29.681Z,101430.09
2019-02-18T08:40:36.757Z,101427.97
2019-02-18T08:41:43.452Z,101416.48
2019-02-18T08:42:50.509Z,101417.34
2019-02-18T08:43:57.223Z,101412.22
2019-02-18T08:45:04.022Z,101410.51
2019-02-18T08:46:10.693Z,101414.34
2019-02-18T08:47:17.824Z,101414.34
2019-02-18T08:48:24.853Z,101415.17
2019-02-18T08:49:31.644Z,101408.80
2019-02-18T08:50:38.380Z,101407.96
2019-02-18T08:51:45.141Z,101406.28
2019-02-18T08:52:52.359Z,101408.83
2019-02-18T08:53:59.647Z,101403.30
2019-02-18T08:55:08.453Z,101401.98
2019-02-18T08:56:15.349Z,101402.42
2019-02-18T08:57:22.825Z,101400.69
2019-02-18T08:58:29.512Z,101396.89
2019-02-18T08:59:36.214Z,101400.25
2019-02-18T09:00:42.907Z,101396.02
2019-02-18T09:01:49.628Z,101398.09
2019-02-18T09:02:56.317Z,101393.82
2019-02-18T09:04:03.579Z,101397.59
2019-02-18T09:05:10.775Z,101398.78
2019-02-18T09:06:17.562Z,101399.16
2019-02-18T09:07:24.548Z,101404.16
2019-02-18T09:08:31.704Z,101397.25
2019-02-18T09:09:38.731Z,101396.41
2019-02-18T09:10:45.802Z,101393.80
2019-02-18T09:11:52.915Z,101392.50
2019-02-18T09:12:59.584Z,101394.97
2019-02-18T09:14:06.541Z,101391.42
2019-02-18T09:15:14.262Z,101392.98
2019-02-18T09:16:21.649Z,101392.43
2019-02-18T09:17:29.043Z,101391.88
2019-02-18T09:18:35.754Z,101393.89
2019-02-18T09:19:42.429Z,101391.32
2019-02-18T09:20:49.275Z,101394.67
2019-02-18T09:22:17.915Z,101393.06
2019-02-18T09:23:46.283Z,101390.94
2019-02-18T09:25:02.926Z,101396.05
2019-02-18T09:26:10.028Z,101394.01
2019-02-18T09:27:16.758Z,101396.09
2019-02-18T09:28:23.459Z,101393.53
2019-02-18T09:29:30.855Z,101390.69
2019-02-18T09:30:39.990Z,101384.30
2019-02-18T09:31:46.707Z,101392.77
2019-02-18T09:32:53.788Z,101393.97
2019-02-18T09:34:00.528Z,101391.43
2019-02-18T09:35:07.426Z,101391.03
2019-02-18T09:36:14.471Z,101393.59
2019-02-18T09:37:21.220Z,101392.70
2019-02-18T09:38:28.231Z,101393.49
2019-02-18T09:39:35.213Z,101391.33
2019-02-18T09:40:46.162Z,101394.27
2019-02-18T09:41:50.455Z,101392.58
2019-02-18T09:42:57.138Z,101385.72
2019-02-18T09:44:03.842Z,101389.95
2019-02-18T09:45:11.206Z,101391.62
2019-02-18T09:46:18.139Z,101389.85
2019-02-18T09:47:25.366Z,101391.95
2019-02-18T09:48:32.100Z,101391.08
2019-02-18T09:49:38.779Z,101388.05
2019-02-18T09:50:45.487Z,101393.08
2019-02-18T09:51:52.580Z,101389.14
2019-02-18T09:52:59.269Z,101389.09
2019-02-18T09:54:06.631Z,101387.81
2019-02-18T09:55:13.572Z,101383.51
2019-02-18T09:56:20.677Z,101385.96
2019-02-18T09:57:27.463Z,101386.36
2019-02-18T09:58:34.575Z,101385.41
2019-02-18T09:59:41.582Z,101388.38
2019-02-18T10:00:48.597Z,101390.50
2019-02-18T10:01:55.561Z,101387.44
2019-02-18T10:03:02.430Z,101386.94
2019-02-18T10:04:09.517Z,101397.55
2019-02-18T10:05:16.207Z,101399.67
2019-02-18T10:06:22.972Z,101401.76
2019-02-18T10:07:30.076Z,101396.65
2019-02-18T10:08:36.759Z,101399.66
2019-02-18T10:09:43.428Z,101394.02
2019-02-18T10:10:55.954Z,101388.81
2019-02-18T10:11:58.551Z,101381.88
2019-02-18T10:13:05.509Z,101386.88
2019-02-18T10:14:12.872Z,101387.63
2019-02-18T10:15:19.928Z,101386.67
2019-02-18T10:16:27.323Z,101386.98
2019-02-18T10:17:34.066Z,101389.91
2019-02-18T10:18:40.791Z,101391.05
2019-02-18T10:19:47.922Z,101387.96
2019-02-18T10:20:54.623Z,101386.21
2019-02-18T10:22:01.761Z,101380.15
2019-02-18T10:23:09.129Z,101386.91
2019-02-18T10:24:16.282Z,101387.19
2019-02-18T10:25:23.329Z,101381.07
2019-02-18T10:26:30.512Z,101384.30
2019-02-18T10:27:37.646Z,101385.97
2019-02-18T10:28:44.298Z,101380.66
2019-02-18T10:29:51.367Z,101384.88
2019-02-18T10:30:58.419Z,101381.34
2019-02-18T10:32:05.242Z,101380.01
2019-02-18T10:33:12.065Z,101380.48
2019-02-18T10:34:18.733Z,101380.95
2019-02-18T10:35:26.473Z,101377.22
2019-02-18T10:36:33.777Z,101376.95
2019-02-18T10:37:40.758Z,101376.38
2019-02-18T10:38:48.320Z,101371.98
2019-02-18T10:39:55.393Z,101369.73
2019-02-18T10:41:07.087Z,101367.48
2019-02-18T10:42:12.187Z,101366.95
2019-02-18T10:43:19.292Z,101365.98
2019-02-18T10:44:26.154Z,101368.03
2019-02-18T10:45:32.993Z,101366.10
2019-02-18T10:46:40.690Z,101371.55
2019-02-18T10:47:47.882Z,101369.73
2019-02-18T10:48:54.998Z,101364.57
2019-02-18T10:50:02.186Z,101366.28
2019-02-18T10:51:09.348Z,101361.97
2019-02-18T10:52:16.837Z,101359.65
2019-02-18T10:53:24.197Z,101361.56
2019-02-18T10:54:31.583Z,101368.30
2019-02-18T10:55:38.898Z,101356.67
2019-02-18T10:56:45.660Z,101353.23
2019-02-18T10:57:52.696Z,101353.23
2019-02-18T10:58:59.755Z,101352.63
2019-02-18T11:00:11.017Z,101353.73
2019-02-18T11:01:17.815Z,101353.19
2019-02-18T11:02:25.247Z,101352.17
2019-02-18T11:03:32.019Z,101350.62
2019-02-18T11:04:38.708Z,101351.20
2019-02-18T11:05:45.862Z,101347.47
2019-02-18T11:06:52.550Z,101347.65
2019-02-18T11:07:59.636Z,101347.96
2019-02-18T11:09:09.551Z,101342.61
2019-02-18T11:10:16.609Z,101339.62
2019-02-18T11:11:23.294Z,101340.24
2019-02-18T11:12:29.955Z,101334.43
2019-02-18T11:13:36.665Z,101333.41
2019-02-18T11:14:43.361Z,101332.77
2019-02-18T11:15:50.702Z,101341.10
2019-02-18T11:16:57.375Z,101330.31
2019-02-18T11:18:04.420Z,101331.00
2019-02-18T11:19:11.399Z,101333.01
2019-02-18T11:20:18.478Z,101327.82
2019-02-18T11:21:27.239Z,101330.96
2019-02-18T11:22:33.972Z,101323.27
2019-02-18T11:23:41.344Z,101324.56
2019-02-18T11:24:48.097Z,101327.63
2019-02-18T11:25:55.646Z,101324.91
2019-02-18T11:27:02.390Z,101325.94
2019-02-18T11:28:09.760Z,101315.82
2019-02-18T11:29:16.551Z,101314.75
2019-02-18T11:30:23.639Z,101313.77
2019-02-18T11:31:30.334Z,101315.23
2019-02-18T11:32:37.062Z,101316.14
2019-02-18T11:33:43.826Z,101312.20
2019-02-18T11:34:50.982Z,101308.67
2019-02-18T11:35:57.834Z,101308.00
2019-02-18T11:37:04.881Z,101307.92
2019-02-18T11:38:11.940Z,101316.67
2019-02-18T11:39:18.606Z,101308.57
2019-02-18T11:40:25.991Z,101307.16
2019-02-18T11:41:33.274Z,101303.91
2019-02-18T11:42:40.733Z,101301.34
2019-02-18T11:43:47.724Z,101303.48
2019-02-18T11:44:54.780Z,101301.84
2019-02-18T11:46:01.892Z,101300.13
2019-02-18T11:47:08.945Z,101299.84
2019-02-18T11:48:15.727Z,101300.09
2019-02-18T11:49:23.123Z,101297.72
2019-02-18T11:50:30.210Z,101296.13
2019-02-18T11:51:36.982Z,101292.23
2019-02-18T11:52:43.789Z,101291.23
2019-02-18T11:53:50.529Z,101292.02
2019-02-18T11:54:57.899Z,101287.37
2019-02-18T11:56:04.607Z,101291.11
2019-02-18T11:57:12.083Z,101287.53
2019-02-18T11:58:19.185Z,101288.06
2019-02-18T11:59:26.632Z,101290.44
2019-02-18T12:00:33.335Z,101290.30
2019-02-18T12:01:40.365Z,101284.85
2019-02-18T12:02:47.549Z,101284.53
2019-02-18T12:03:54.259Z,101285.62
2019-02-18T12:05:01.315Z,101276.50
2019-02-18T12:06:08.094Z,101279.99
2019-02-18T12:07:14.748Z,101278.48
2019-02-18T12:08:21.562Z,101276.17
2019-02-18T12:09:28.235Z,101281.56
2019-02-18T12:10:35.253Z,101284.35
2019-02-18T12:11:42.058Z,101277.48
2019-02-18T12:12:49.533Z,101276.91
2019-02-18T12:13:56.557Z,101280.11
2019-02-18T12:15:03.283Z,101271.23
2019-02-18T12:16:11.357Z,101273.68
2019-02-18T12:17:20.501Z,101272.57
2019-02-18T12:18:26.852Z,101271.25
2019-02-18T12:19:33.586Z,101268.38
2019-02-18T12:20:40.726Z,101266.03
2019-02-18T12:21:47.411Z,101258.48
2019-02-18T12:22:55.197Z,101264.23
2019-02-18T12:24:02.308Z,101253.66
2019-02-18T12:25:10.336Z,101259.22
2019-02-18T12:26:17.735Z,101254.70
2019-02-18T12:27:24.526Z,101257.57
2019-02-18T12:28:31.341Z,101252.34
2019-02-18T12:29:38.561Z,101256.59
2019-02-18T12:30:45.305Z,101250.87
2019-02-18T12:31:52.444Z,101246.95
2019-02-18T12:32:59.151Z,101245.06
2019-02-18T12:34:06.380Z,101239.31
2019-02-18T12:35:13.322Z,101241.20
2019-02-18T12:36:20.028Z,101238.34
2019-02-18T12:37:27.123Z,101235.15
2019-02-18T12:38:34.170Z,101233.70
2019-02-18T12:39:40.923Z,101239.38
2019-02-18T12:40:47.806Z,101239.33
2019-02-18T12:41:54.896Z,101235.15
2019-02-18T12:43:02.016Z,101236.20
2019-02-18T12:44:09.516Z,101235.70
2019-02-18T12:45:16.504Z,101229.02
2019-02-18T12:46:23.898Z,101226.80
2019-02-18T12:47:30.599Z,101231.78
2019-02-18T12:48:37.517Z,101231.05
2019-02-18T12:49:44.202Z,101216.48
2019-02-18T12:50:51.895Z,101227.38